createdAt,value
2023-07-02T00:01:18.565Z,15.45
2023-07-02T00:04:08.140Z,15.51
2023-07-02T00:06:36.472Z,15.57
2023-07-02T00:09:06.025Z,15.59
2023-07-02T00:11:34.379Z,15.59
2023-07-02T00:14:04.200Z,15.59
2023-07-02T00:16:32.980Z,15.60
2023-07-02T00:19:02.598Z,15.60
2023-07-02T00:21:30.785Z,15.57
2023-07-02T00:24:01.593Z,15.53
2023-07-02T00:26:30.319Z,15.47
2023-07-02T00:28:59.861Z,15.43
2023-07-02T00:31:28.235Z,15.37
2023-07-02T00:33:57.788Z,15.31
2023-07-02T00:36:26.032Z,15.25
2023-07-02T00:38:57.174Z,15.19
2023-07-02T00:41:26.415Z,15.15
2023-07-02T00:43:55.979Z,15.10
2023-07-02T00:46:25.349Z,15.05
2023-07-02T00:48:56.666Z,15.00
2023-07-02T00:51:28.459Z,14.96
2023-07-02T00:53:59.350Z,14.92
2023-07-02T00:56:28.160Z,14.92
2023-07-02T00:58:57.765Z,14.91
2023-07-02T01:01:28.398Z,14.89
2023-07-02T01:04:05.228Z,14.86
2023-07-02T01:06:37.601Z,14.83
2023-07-02T01:09:07.038Z,14.83
2023-07-02T01:11:47.044Z,14.82
2023-07-02T01:14:29.874Z,14.82
2023-07-02T01:17:02.153Z,14.79
2023-07-02T01:19:51.428Z,14.77
2023-07-02T01:22:25.034Z,14.74
2023-07-02T01:24:54.570Z,14.70
2023-07-02T01:27:24.117Z,14.72
2023-07-02T01:29:53.939Z,14.69
2023-07-02T01:32:24.605Z,14.66
2023-07-02T01:34:53.123Z,14.67
2023-07-02T01:37:22.882Z,14.67
2023-07-02T01:39:51.303Z,14.67
2023-07-02T01:42:21.616Z,14.67
2023-07-02T01:44:50.412Z,14.68
2023-07-02T01:47:20.332Z,14.68
2023-07-02T01:49:48.661Z,14.70
2023-07-02T01:52:18.487Z,14.69
2023-07-02T01:54:47.160Z,14.68
2023-07-02T01:57:16.737Z,14.68
2023-07-02T01:59:45.007Z,14.67
2023-07-02T02:02:15.588Z,14.66
2023-07-02T02:04:43.860Z,14.67
2023-07-02T02:07:14.419Z,14.67
2023-07-02T02:09:42.657Z,14.68
2023-07-02T02:12:13.206Z,14.69
2023-07-02T02:14:41.439Z,14.72
2023-07-02T02:17:12.023Z,14.74
2023-07-02T02:19:40.278Z,14.76
2023-07-02T02:22:10.841Z,14.75
2023-07-02T02:24:39.122Z,14.71
2023-07-02T02:27:09.027Z,14.68
2023-07-02T02:29:37.266Z,14.68
2023-07-02T02:32:07.986Z,14.67
2023-07-02T02:34:36.232Z,14.66
2023-07-02T02:37:05.931Z,14.61
2023-07-02T02:39:34.171Z,14.58
2023-07-02T02:42:04.331Z,14.57
2023-07-02T02:44:32.623Z,14.53
2023-07-02T02:47:03.448Z,14.49
2023-07-02T02:49:32.037Z,14.45
2023-07-02T02:52:01.567Z,14.46
2023-07-02T02:54:29.807Z,14.48
2023-07-02T02:57:00.402Z,14.51
2023-07-02T02:59:28.851Z,14.51
2023-07-02T03:01:58.448Z,14.51
2023-07-02T03:04:26.763Z,14.53
2023-07-02T03:06:57.370Z,14.56
2023-07-02T03:09:25.582Z,14.57
2023-07-02T03:11:56.197Z,14.56
2023-07-02T03:14:24.484Z,14.54
2023-07-02T03:16:55.225Z,14.49
2023-07-02T03:19:23.615Z,14.44
2023-07-02T03:21:53.159Z,14.42
2023-07-02T03:24:22.509Z,14.40
2023-07-02T03:26:52.036Z,14.39
2023-07-02T03:29:20.616Z,14.36
2023-07-02T03:31:51.135Z,14.36
2023-07-02T03:34:19.512Z,14.37
2023-07-02T03:36:49.027Z,14.37
2023-07-02T03:39:17.351Z,14.38
2023-07-02T03:41:46.927Z,14.40
2023-07-02T03:44:15.275Z,14.45
2023-07-02T03:46:46.060Z,14.51
2023-07-02T03:49:14.332Z,14.54
2023-07-02T03:51:44.984Z,14.55
2023-07-02T03:54:13.251Z,14.56
2023-07-02T03:56:43.745Z,14.60
2023-07-02T03:59:12.230Z,14.67
2023-07-02T04:01:41.744Z,14.72
2023-07-02T04:04:10.107Z,14.81
2023-07-02T04:06:38.874Z,14.87
2023-07-02T04:09:07.123Z,14.90
2023-07-02T04:11:37.616Z,14.91
2023-07-02T04:14:05.869Z,14.89
2023-07-02T04:16:36.471Z,14.89
2023-07-02T04:19:04.835Z,14.91
2023-07-02T04:21:35.412Z,14.89
2023-07-02T04:24:04.071Z,14.89
2023-07-02T04:26:56.962Z,14.88
2023-07-02T04:29:23.728Z,14.85
2023-07-02T04:31:52.012Z,14.82
2023-07-02T04:34:21.632Z,14.86
2023-07-02T04:36:51.560Z,14.93
2023-07-02T04:39:22.802Z,14.99
2023-07-02T04:41:51.118Z,15.06
2023-07-02T04:44:21.783Z,15.09
2023-07-02T04:46:49.981Z,15.13
2023-07-02T04:49:20.532Z,15.14
2023-07-02T04:51:48.752Z,15.18
2023-07-02T04:54:19.295Z,15.19
2023-07-02T04:56:48.209Z,15.25
2023-07-02T04:59:17.798Z,15.29
2023-07-02T05:01:46.194Z,15.37
2023-07-02T05:04:15.890Z,15.42
2023-07-02T05:06:44.205Z,15.53
2023-07-02T05:09:14.767Z,15.63
2023-07-02T05:11:43.013Z,15.72
2023-07-02T05:14:13.629Z,15.78
2023-07-02T05:16:41.853Z,15.87
2023-07-02T05:19:12.427Z,16.00
2023-07-02T05:21:40.764Z,16.21
2023-07-02T05:24:10.508Z,16.50
2023-07-02T05:26:38.810Z,16.71
2023-07-02T05:29:09.346Z,16.82
2023-07-02T05:31:37.693Z,16.93
2023-07-02T05:34:07.320Z,17.07
2023-07-02T05:36:35.633Z,17.16
2023-07-02T05:39:06.263Z,17.18
2023-07-02T05:41:34.511Z,17.12
2023-07-02T05:44:05.252Z,17.06
2023-07-02T05:46:33.545Z,16.99
2023-07-02T05:49:04.091Z,16.99
2023-07-02T05:51:32.538Z,16.95
2023-07-02T05:54:02.098Z,16.94
2023-07-02T05:56:30.402Z,16.99
2023-07-02T05:59:00.928Z,16.99
2023-07-02T06:01:29.205Z,17.01
2023-07-02T06:03:59.813Z,17.05
2023-07-02T06:06:28.207Z,17.11
2023-07-02T06:08:58.788Z,17.10
2023-07-02T06:11:27.132Z,17.20
2023-07-02T06:13:57.735Z,17.30
2023-07-02T06:16:26.425Z,17.39
2023-07-02T06:18:56.081Z,17.44
2023-07-02T06:21:24.394Z,17.45
2023-07-02T06:23:55.017Z,17.48
2023-07-02T06:26:23.361Z,17.48
2023-07-02T06:28:53.985Z,17.51
2023-07-02T06:31:22.267Z,17.56
2023-07-02T06:33:52.037Z,17.59
2023-07-02T06:36:20.681Z,17.66
2023-07-02T06:38:50.359Z,17.74
2023-07-02T06:41:18.830Z,17.77
2023-07-02T06:43:48.589Z,17.78
2023-07-02T06:46:17.013Z,17.85
2023-07-02T06:48:45.821Z,17.88
2023-07-02T06:51:14.169Z,17.98
2023-07-02T06:53:43.692Z,18.14
2023-07-02T06:56:12.072Z,18.29
2023-07-02T06:58:44.554Z,18.28
2023-07-02T07:01:12.961Z,18.35
2023-07-02T07:03:42.562Z,18.41
2023-07-02T07:06:12.921Z,18.35
2023-07-02T07:08:42.427Z,18.40
2023-07-02T07:11:10.863Z,18.45
2023-07-02T07:13:40.442Z,18.56
2023-07-02T07:16:08.678Z,18.61
2023-07-02T07:18:39.312Z,18.61
2023-07-02T07:21:07.594Z,18.63
2023-07-02T07:23:38.279Z,18.63
2023-07-02T07:26:07.347Z,18.66
2023-07-02T07:28:37.047Z,18.75
2023-07-02T07:31:05.404Z,18.93
2023-07-02T07:33:35.953Z,19.19
2023-07-02T07:36:04.325Z,19.19
2023-07-02T07:38:33.903Z,19.06
2023-07-02T07:41:02.177Z,19.02
2023-07-02T07:43:32.768Z,19.12
2023-07-02T07:46:01.066Z,19.18
2023-07-02T07:48:30.814Z,19.20
2023-07-02T07:50:59.027Z,19.40
2023-07-02T07:53:28.649Z,19.43
2023-07-02T07:55:56.942Z,19.49
2023-07-02T07:58:27.498Z,19.49
2023-07-02T08:00:55.895Z,19.57
2023-07-02T08:03:26.508Z,19.56
2023-07-02T08:05:54.905Z,19.69
2023-07-02T08:08:24.468Z,19.96
2023-07-02T08:10:52.814Z,20.22
2023-07-02T08:13:22.591Z,20.56
2023-07-02T08:15:50.846Z,20.92
2023-07-02T08:18:21.426Z,21.11
2023-07-02T08:20:49.975Z,21.11
2023-07-02T08:23:19.850Z,21.12
2023-07-02T08:25:48.143Z,21.25
2023-07-02T08:28:18.692Z,21.49
2023-07-02T08:30:48.054Z,21.72
2023-07-02T08:33:17.777Z,21.82
2023-07-02T08:35:46.189Z,21.87
2023-07-02T08:38:14.939Z,21.80
2023-07-02T08:40:43.238Z,21.89
2023-07-02T08:43:13.100Z,22.14
2023-07-02T08:45:43.098Z,22.14
2023-07-02T08:48:14.581Z,21.88
2023-07-02T08:50:43.636Z,21.46
2023-07-02T08:53:13.170Z,21.13
2023-07-02T08:55:41.583Z,21.20
2023-07-02T08:58:11.484Z,21.46
2023-07-02T09:00:39.872Z,21.17
2023-07-02T09:03:27.447Z,20.42
2023-07-02T09:05:57.226Z,19.53
2023-07-02T09:08:29.667Z,18.69
2023-07-02T09:11:16.981Z,18.18
2023-07-02T09:13:52.804Z,18.04
2023-07-02T09:16:28.811Z,18.40
2023-07-02T09:19:07.959Z,19.18
2023-07-02T09:21:50.497Z,19.81
2023-07-02T09:24:23.462Z,20.36
2023-07-02T09:26:55.150Z,20.73
2023-07-02T09:29:33.625Z,21.11
2023-07-02T09:32:10.672Z,21.49
2023-07-02T09:34:41.134Z,21.56
2023-07-02T09:37:10.545Z,21.48
2023-07-02T09:39:40.321Z,21.52
2023-07-02T09:42:09.684Z,22.07
2023-07-02T09:44:40.085Z,22.93
2023-07-02T09:47:11.253Z,23.93
2023-07-02T09:49:52.680Z,25.22
2023-07-02T09:52:24.209Z,25.25
2023-07-02T09:54:52.494Z,24.80
2023-07-02T09:57:22.452Z,24.42
2023-07-02T09:59:50.911Z,25.13
2023-07-02T10:02:20.658Z,26.26
2023-07-02T10:04:49.229Z,26.88
2023-07-02T10:07:33.334Z,26.85
2023-07-02T10:10:03.291Z,25.96
2023-07-02T10:12:31.821Z,26.21
2023-07-02T10:15:00.840Z,27.02
2023-07-02T10:17:36.767Z,28.08
2023-07-02T10:20:08.552Z,28.88
2023-07-02T10:22:48.853Z,28.87
2023-07-02T10:25:30.938Z,29.17
2023-07-02T10:28:02.363Z,29.70
2023-07-02T10:30:36.531Z,29.65
2023-07-02T10:33:16.347Z,28.26
2023-07-02T10:35:51.260Z,26.12
2023-07-02T10:38:24.889Z,24.24
2023-07-02T10:40:58.831Z,22.76
2023-07-02T10:43:31.249Z,21.48
2023-07-02T10:46:02.235Z,20.50
2023-07-02T10:48:32.381Z,19.64
2023-07-02T10:51:00.678Z,18.99
2023-07-02T10:53:30.575Z,18.59
2023-07-02T10:55:59.508Z,18.41
2023-07-02T10:58:29.127Z,18.41
2023-07-02T11:00:57.563Z,18.61
2023-07-02T11:03:28.314Z,20.08
2023-07-02T11:05:56.943Z,22.95
2023-07-02T11:08:36.292Z,25.34
2023-07-02T11:11:09.505Z,27.61
2023-07-02T11:13:49.711Z,28.25
2023-07-02T11:16:29.804Z,29.21
2023-07-02T11:19:10.296Z,29.57
2023-07-02T11:21:52.003Z,28.35
2023-07-02T11:24:36.538Z,26.53
2023-07-02T11:27:07.134Z,25.02
2023-07-02T11:29:36.603Z,24.07
2023-07-02T11:32:12.015Z,24.25
2023-07-02T11:34:41.997Z,25.19
2023-07-02T11:37:10.313Z,25.81
2023-07-02T11:39:43.866Z,25.50
2023-07-02T11:42:12.223Z,24.85
2023-07-02T11:44:41.999Z,24.77
2023-07-02T11:47:10.436Z,25.92
2023-07-02T11:49:40.075Z,26.62
2023-07-02T11:52:08.361Z,26.30
2023-07-02T11:54:38.903Z,25.69
2023-07-02T11:57:07.446Z,26.65
2023-07-02T11:59:37.001Z,28.53
2023-07-02T12:02:06.426Z,30.10
2023-07-02T12:04:36.185Z,30.50
2023-07-02T12:07:04.800Z,29.80
2023-07-02T12:09:34.508Z,28.10
2023-07-02T12:12:04.011Z,26.52
2023-07-02T12:14:33.611Z,25.08
2023-07-02T12:17:03.608Z,24.07
2023-07-02T12:19:34.793Z,23.56
2023-07-02T12:22:03.580Z,23.14
2023-07-02T12:24:33.337Z,22.95
2023-07-02T12:27:01.884Z,24.40
2023-07-02T12:29:31.512Z,26.90
2023-07-02T12:31:59.866Z,28.94
2023-07-02T12:34:28.636Z,29.75
2023-07-02T12:36:56.994Z,30.78
2023-07-02T12:39:26.563Z,30.22
2023-07-02T12:41:54.844Z,28.37
2023-07-02T12:44:25.478Z,26.61
2023-07-02T12:46:53.864Z,24.94
2023-07-02T12:49:23.513Z,23.57
2023-07-02T12:51:51.760Z,22.54
2023-07-02T12:54:22.470Z,22.24
2023-07-02T12:56:50.794Z,23.74
2023-07-02T12:59:20.453Z,25.22
2023-07-02T13:01:48.795Z,25.20
2023-07-02T13:04:18.651Z,25.52
2023-07-02T13:06:47.015Z,27.21
2023-07-02T13:09:17.609Z,29.27
2023-07-02T13:11:45.898Z,30.90
2023-07-02T13:14:16.619Z,31.83
2023-07-02T13:16:44.967Z,32.55
2023-07-02T13:19:14.939Z,32.29
2023-07-02T13:21:43.273Z,31.38
2023-07-02T13:24:13.828Z,32.03
2023-07-02T13:26:44.285Z,31.07
2023-07-02T13:29:15.463Z,29.50
2023-07-02T13:31:43.794Z,27.88
2023-07-02T13:34:14.345Z,26.36
2023-07-02T13:36:42.657Z,24.75
2023-07-02T13:39:13.218Z,23.36
2023-07-02T13:41:41.542Z,22.33
2023-07-02T13:44:12.170Z,21.47
2023-07-02T13:46:40.624Z,20.77
2023-07-02T13:49:11.680Z,20.50
2023-07-02T13:51:39.993Z,20.11
2023-07-02T13:54:13.377Z,19.75
2023-07-02T13:56:41.632Z,19.47
2023-07-02T13:59:11.277Z,19.42
2023-07-02T14:01:39.632Z,19.87
2023-07-02T14:04:11.969Z,21.19
2023-07-02T14:06:41.056Z,23.90
2023-07-02T14:09:12.123Z,25.95
2023-07-02T14:11:42.597Z,27.72
2023-07-02T14:14:12.545Z,28.75
2023-07-02T14:16:40.841Z,29.32
2023-07-02T14:19:10.450Z,28.86
2023-07-02T14:21:38.979Z,28.07
2023-07-02T14:24:09.413Z,26.35
2023-07-02T14:26:37.657Z,24.62
2023-07-02T14:29:07.251Z,23.24
2023-07-02T14:31:35.520Z,22.01
2023-07-02T14:34:06.318Z,21.27
2023-07-02T14:36:34.875Z,20.87
2023-07-02T14:39:04.494Z,20.86
2023-07-02T14:41:32.969Z,20.65
2023-07-02T14:44:04.715Z,20.27
2023-07-02T14:46:33.296Z,20.09
2023-07-02T14:49:02.947Z,20.01
2023-07-02T14:51:31.383Z,19.92
2023-07-02T14:54:01.544Z,19.80
2023-07-02T14:56:33.898Z,19.73
2023-07-02T14:59:03.682Z,19.67
2023-07-02T15:01:31.975Z,19.74
2023-07-02T15:04:02.718Z,19.58
2023-07-02T15:06:31.083Z,19.54
2023-07-02T15:09:01.651Z,19.79
2023-07-02T15:11:29.917Z,20.23
2023-07-02T15:14:00.428Z,20.80
2023-07-02T15:16:28.727Z,21.73
2023-07-02T15:18:58.304Z,23.11
2023-07-02T15:21:26.607Z,23.92
2023-07-02T15:23:56.197Z,23.51
2023-07-02T15:26:24.566Z,22.38
2023-07-02T15:28:55.148Z,21.74
2023-07-02T15:31:23.782Z,21.76
2023-07-02T15:33:52.519Z,22.20
2023-07-02T15:36:21.206Z,22.88
2023-07-02T15:38:51.313Z,22.88
2023-07-02T15:41:20.649Z,22.45
2023-07-02T15:43:50.188Z,21.81
2023-07-02T15:46:18.834Z,21.29
2023-07-02T15:48:48.483Z,21.20
2023-07-02T15:51:16.805Z,21.87
2023-07-02T15:53:46.658Z,21.79
2023-07-02T15:56:14.877Z,21.55
2023-07-02T15:58:44.606Z,21.25
2023-07-02T16:01:17.902Z,20.60
2023-07-02T16:03:47.690Z,20.01
2023-07-02T16:06:16.487Z,19.52
2023-07-02T16:08:46.214Z,19.16
2023-07-02T16:11:15.078Z,18.83
2023-07-02T16:13:44.665Z,18.59
2023-07-02T16:16:13.114Z,18.44
2023-07-02T16:18:42.899Z,18.30
2023-07-02T16:21:11.476Z,18.07
2023-07-02T16:23:41.494Z,17.97
2023-07-02T16:26:11.370Z,17.95
2023-07-02T16:28:40.958Z,18.04
2023-07-02T16:31:10.568Z,18.14
2023-07-02T16:33:40.246Z,18.15
2023-07-02T16:36:13.040Z,18.09
2023-07-02T16:38:42.828Z,18.08
2023-07-02T16:41:11.736Z,17.99
2023-07-02T16:43:41.369Z,17.99
2023-07-02T16:46:09.886Z,18.16
2023-07-02T16:48:39.637Z,18.37
2023-07-02T16:51:08.583Z,18.43
2023-07-02T16:53:38.130Z,18.35
2023-07-02T16:56:07.363Z,18.21
2023-07-02T16:58:36.992Z,18.15
2023-07-02T17:01:10.516Z,18.14
2023-07-02T17:03:44.509Z,18.09
2023-07-02T17:06:13.038Z,17.97
2023-07-02T17:08:43.111Z,17.86
2023-07-02T17:11:13.337Z,17.77
2023-07-02T17:13:42.895Z,17.68
2023-07-02T17:16:11.201Z,17.59
2023-07-02T17:18:40.821Z,17.51
2023-07-02T17:21:09.288Z,17.44
2023-07-02T17:23:38.860Z,17.33
2023-07-02T17:26:07.147Z,17.28
2023-07-02T17:28:37.743Z,17.30
2023-07-02T17:31:06.143Z,17.30
2023-07-02T17:33:36.742Z,17.20
2023-07-02T17:36:05.500Z,17.11
2023-07-02T17:38:35.105Z,17.04
2023-07-02T17:41:03.634Z,17.00
2023-07-02T17:43:34.183Z,16.97
2023-07-02T17:46:02.395Z,16.95
2023-07-02T17:48:33.222Z,16.92
2023-07-02T17:51:01.542Z,16.85
2023-07-02T17:53:31.143Z,16.77
2023-07-02T17:55:59.463Z,16.68
2023-07-02T17:58:29.990Z,16.64
2023-07-02T18:00:58.368Z,16.61
2023-07-02T18:03:29.048Z,16.57
2023-07-02T18:05:57.438Z,16.56
2023-07-02T18:08:27.068Z,16.56
2023-07-02T18:10:56.097Z,16.61
2023-07-02T18:13:26.491Z,16.67
2023-07-02T18:15:54.924Z,16.73
2023-07-02T18:18:24.583Z,16.75
2023-07-02T18:20:53.170Z,16.73
2023-07-02T18:23:23.295Z,16.64
2023-07-02T18:25:55.919Z,16.57
2023-07-02T18:28:27.427Z,16.55
2023-07-02T18:30:56.144Z,16.53
2023-07-02T18:33:26.668Z,16.49
2023-07-02T18:35:54.934Z,16.50
2023-07-02T18:38:24.896Z,16.50
2023-07-02T18:41:06.427Z,16.50
2023-07-02T18:43:37.732Z,16.48
2023-07-02T18:46:06.744Z,16.47
2023-07-02T18:48:36.579Z,16.44
2023-07-02T18:51:07.391Z,16.36
2023-07-02T18:53:37.064Z,16.24
2023-07-02T18:56:07.422Z,16.16
2023-07-02T18:58:37.074Z,16.07
2023-07-02T19:01:11.733Z,16.00
2023-07-02T19:03:40.593Z,15.93
2023-07-02T19:06:10.228Z,15.85
2023-07-02T19:08:41.039Z,15.78
2023-07-02T19:11:10.002Z,15.71
2023-07-02T19:13:39.556Z,15.68
2023-07-02T19:16:07.919Z,15.67
2023-07-02T19:18:37.503Z,15.64
2023-07-02T19:21:05.774Z,15.58
2023-07-02T19:23:36.292Z,15.54
2023-07-02T19:26:04.512Z,15.51
2023-07-02T19:28:35.047Z,15.47
2023-07-02T19:31:05.045Z,15.45
2023-07-02T19:33:34.863Z,15.41
2023-07-02T19:36:09.586Z,15.37
2023-07-02T19:38:39.116Z,15.32
2023-07-02T19:41:08.343Z,15.28
2023-07-02T19:43:37.877Z,15.26
2023-07-02T19:46:06.219Z,15.24
2023-07-02T19:48:35.861Z,15.20
2023-07-02T19:51:06.422Z,15.17
2023-07-02T19:53:36.106Z,15.14
2023-07-02T19:56:10.101Z,15.13
2023-07-02T19:58:39.679Z,15.14
2023-07-02T20:01:14.896Z,15.14
2023-07-02T20:03:44.746Z,15.13
2023-07-02T20:06:14.428Z,15.14
2023-07-02T20:08:44.248Z,15.11
2023-07-02T20:11:12.712Z,15.14
2023-07-02T20:13:43.257Z,15.14
2023-07-02T20:16:11.838Z,15.13
2023-07-02T20:18:41.409Z,15.12
2023-07-02T20:21:09.789Z,15.11
2023-07-02T20:23:39.297Z,15.10
2023-07-02T20:26:13.346Z,15.08
2023-07-02T20:28:43.322Z,15.06
2023-07-02T20:31:11.761Z,15.02
2023-07-02T20:33:41.378Z,14.96
2023-07-02T20:36:14.494Z,14.91
2023-07-02T20:38:44.630Z,14.83
2023-07-02T20:41:12.914Z,14.74
2023-07-02T20:43:43.463Z,14.66
2023-07-02T20:46:11.929Z,14.58
2023-07-02T20:48:41.611Z,14.53
2023-07-02T20:51:10.350Z,14.51
2023-07-02T20:53:39.924Z,14.49
2023-07-02T20:56:08.630Z,14.49
2023-07-02T20:58:38.698Z,14.48
2023-07-02T21:01:11.712Z,14.49
2023-07-02T21:03:40.646Z,14.50
2023-07-02T21:06:11.689Z,14.52
2023-07-02T21:08:41.453Z,14.56
2023-07-02T21:11:23.796Z,14.58
2023-07-02T21:14:00.581Z,14.60
2023-07-02T21:16:29.980Z,14.61
2023-07-02T21:19:00.409Z,14.60
2023-07-02T21:21:28.838Z,14.56
2023-07-02T21:23:58.350Z,14.49
2023-07-02T21:26:26.691Z,14.41
2023-07-02T21:28:56.237Z,14.34
2023-07-02T21:31:24.663Z,14.28
2023-07-02T21:33:54.204Z,14.25
2023-07-02T21:36:22.673Z,14.21
2023-07-02T21:38:52.269Z,14.14
2023-07-02T21:41:20.577Z,14.08
2023-07-02T21:43:51.116Z,14.02
2023-07-02T21:46:19.488Z,13.93
2023-07-02T21:48:49.118Z,13.83
2023-07-02T21:51:18.254Z,13.73
2023-07-02T21:53:47.955Z,13.68
2023-07-02T21:56:18.477Z,13.62
2023-07-02T21:58:48.563Z,13.57
2023-07-02T22:01:17.167Z,13.53
2023-07-02T22:03:46.781Z,13.48
2023-07-02T22:06:15.079Z,13.45
2023-07-02T22:08:44.654Z,13.41
2023-07-02T22:11:23.030Z,13.39
2023-07-02T22:13:53.599Z,13.38
2023-07-02T22:16:21.883Z,13.35
2023-07-02T22:18:52.385Z,13.33
2023-07-02T22:21:20.655Z,13.27
2023-07-02T22:23:51.230Z,13.23
2023-07-02T22:26:19.560Z,13.21
2023-07-02T22:28:49.131Z,13.20
2023-07-02T22:31:17.437Z,13.21
2023-07-02T22:33:47.104Z,13.23
2023-07-02T22:36:15.413Z,13.23
2023-07-02T22:38:46.194Z,13.24
2023-07-02T22:41:14.524Z,13.23
2023-07-02T22:43:45.032Z,13.21
2023-07-02T22:46:13.305Z,13.22
2023-07-02T22:48:42.924Z,13.23
2023-07-02T22:51:11.184Z,13.23
2023-07-02T22:53:42.583Z,13.23
2023-07-02T22:56:17.595Z,13.24
2023-07-02T22:58:47.170Z,13.25
2023-07-02T23:01:15.456Z,13.28
2023-07-02T23:03:46.197Z,13.31
2023-07-02T23:06:14.574Z,13.32
2023-07-02T23:08:46.349Z,13.33
2023-07-02T23:11:14.586Z,13.33
2023-07-02T23:13:44.176Z,13.33
2023-07-02T23:16:12.517Z,13.34
2023-07-02T23:18:43.040Z,13.36
2023-07-02T23:21:11.248Z,13.34
2023-07-02T23:23:41.737Z,13.31
2023-07-02T23:26:10.523Z,13.26
2023-07-02T23:28:40.020Z,13.24
2023-07-02T23:31:08.241Z,13.26
2023-07-02T23:33:38.772Z,13.27
2023-07-02T23:36:07.089Z,13.26
2023-07-02T23:38:37.632Z,13.26
2023-07-02T23:41:06.215Z,13.24
2023-07-02T23:43:35.723Z,13.23
2023-07-02T23:46:03.956Z,13.25
2023-07-02T23:48:33.682Z,13.24
2023-07-02T23:51:02.302Z,13.22
2023-07-02T23:53:32.087Z,13.19
2023-07-02T23:56:00.366Z,13.17
2023-07-02T23:58:30.944Z,13.18
